sensor_id;sensor_type;location;lat;lon;timestamp;P1;durP1;ratioP1;P2;durP2;ratioP2
37411;SDS011;23278;52.110;6.050;2022-11-12T00:01:24;7.07;;;2.75;;
37411;SDS011;23278;52.110;6.050;2022-11-12T00:04:09;7.63;;;3.67;;
37411;SDS011;23278;52.110;6.050;2022-11-12T00:06:53;5.97;;;2.97;;
37411;SDS011;23278;52.110;6.050;2022-11-12T00:09:37;8.30;;;3.53;;
37411;SDS011;23278;52.110;6.050;2022-11-12T00:12:22;8.63;;;3.80;;
37411;SDS011;23278;52.110;6.050;2022-11-12T00:15:06;8.35;;;3.90;;
37411;SDS011;23278;52.110;6.050;2022-11-12T00:17:52;7.43;;;3.33;;
37411;SDS011;23278;52.110;6.050;2022-11-12T00:20:36;9.57;;;3.75;;
37411;SDS011;23278;52.110;6.050;2022-11-12T00:23:21;9.32;;;4.43;;
37411;SDS011;23278;52.110;6.050;2022-11-12T00:26:05;9.98;;;3.28;;
37411;SDS011;23278;52.110;6.050;2022-11-12T00:28:49;7.03;;;3.05;;
37411;SDS011;23278;52.110;6.050;2022-11-12T00:31:33;5.93;;;2.85;;
37411;SDS011;23278;52.110;6.050;2022-11-12T00:34:17;9.38;;;4.28;;
37411;SDS011;23278;52.110;6.050;2022-11-12T00:37:02;7.82;;;2.88;;
37411;SDS011;23278;52.110;6.050;2022-11-12T00:39:47;6.95;;;3.08;;
37411;SDS011;23278;52.110;6.050;2022-11-12T00:42:32;7.50;;;3.67;;
37411;SDS011;23278;52.110;6.050;2022-11-12T00:45:17;7.10;;;4.22;;
37411;SDS011;23278;52.110;6.050;2022-11-12T00:48:02;7.28;;;2.97;;
37411;SDS011;23278;52.110;6.050;2022-11-12T00:50:46;7.28;;;3.17;;
37411;SDS011;23278;52.110;6.050;2022-11-12T00:53:31;4.68;;;3.25;;
37411;SDS011;23278;52.110;6.050;2022-11-12T00:56:15;4.82;;;2.95;;
37411;SDS011;23278;52.110;6.050;2022-11-12T00:59:00;4.40;;;2.30;;
37411;SDS011;23278;52.110;6.050;2022-11-12T01:01:44;4.70;;;2.72;;
37411;SDS011;23278;52.110;6.050;2022-11-12T01:04:29;4.32;;;2.70;;
37411;SDS011;23278;52.110;6.050;2022-11-12T01:07:13;4.35;;;2.75;;
37411;SDS011;23278;52.110;6.050;2022-11-12T01:10:01;9.55;;;3.33;;
37411;SDS011;23278;52.110;6.050;2022-11-12T01:12:45;4.60;;;2.72;;
37411;SDS011;23278;52.110;6.050;2022-11-12T01:15:30;4.85;;;2.78;;
37411;SDS011;23278;52.110;6.050;2022-11-12T01:18:14;4.38;;;2.63;;
37411;SDS011;23278;52.110;6.050;2022-11-12T01:21:02;4.68;;;2.20;;
37411;SDS011;23278;52.110;6.050;2022-11-12T01:23:48;6.68;;;2.20;;
37411;SDS011;23278;52.110;6.050;2022-11-12T01:26:32;3.83;;;1.88;;
37411;SDS011;23278;52.110;6.050;2022-11-12T01:29:17;5.25;;;2.10;;
37411;SDS011;23278;52.110;6.050;2022-11-12T01:32:01;6.30;;;3.10;;
37411;SDS011;23278;52.110;6.050;2022-11-12T01:34:45;4.15;;;2.00;;
37411;SDS011;23278;52.110;6.050;2022-11-12T01:37:30;3.78;;;2.10;;
37411;SDS011;23278;52.110;6.050;2022-11-12T01:40:14;3.03;;;2.13;;
37411;SDS011;23278;52.110;6.050;2022-11-12T01:42:59;2.83;;;2.20;;
37411;SDS011;23278;52.110;6.050;2022-11-12T01:45:45;3.53;;;2.20;;
37411;SDS011;23278;52.110;6.050;2022-11-12T01:48:37;3.72;;;1.90;;
37411;SDS011;23278;52.110;6.050;2022-11-12T01:51:28;2.63;;;1.55;;
37411;SDS011;23278;52.110;6.050;2022-11-12T01:54:18;3.97;;;2.20;;
37411;SDS011;23278;52.110;6.050;2022-11-12T01:57:04;3.03;;;1.55;;
37411;SDS011;23278;52.110;6.050;2022-11-12T01:59:49;6.85;;;3.15;;
37411;SDS011;23278;52.110;6.050;2022-11-12T02:02:39;4.22;;;1.85;;
37411;SDS011;23278;52.110;6.050;2022-11-12T02:05:27;5.93;;;1.83;;
37411;SDS011;23278;52.110;6.050;2022-11-12T02:08:13;4.72;;;2.60;;
37411;SDS011;23278;52.110;6.050;2022-11-12T02:10:58;3.35;;;2.20;;
37411;SDS011;23278;52.110;6.050;2022-11-12T02:13:57;4.60;;;2.42;;
37411;SDS011;23278;52.110;6.050;2022-11-12T02:16:42;3.33;;;2.20;;
37411;SDS011;23278;52.110;6.050;2022-11-12T02:19:28;5.50;;;2.90;;
37411;SDS011;23278;52.110;6.050;2022-11-12T02:22:12;3.30;;;2.05;;
37411;SDS011;23278;52.110;6.050;2022-11-12T02:24:57;4.05;;;2.47;;
37411;SDS011;23278;52.110;6.050;2022-11-12T02:27:42;4.43;;;2.38;;
37411;SDS011;23278;52.110;6.050;2022-11-12T02:30:37;4.53;;;3.13;;
37411;SDS011;23278;52.110;6.050;2022-11-12T02:33:24;4.07;;;2.40;;
37411;SDS011;23278;52.110;6.050;2022-11-12T02:36:09;4.05;;;3.20;;
37411;SDS011;23278;52.110;6.050;2022-11-12T02:38:53;4.43;;;2.88;;
37411;SDS011;23278;52.110;6.050;2022-11-12T02:41:38;6.10;;;3.65;;
37411;SDS011;23278;52.110;6.050;2022-11-12T02:44:22;6.63;;;3.72;;
37411;SDS011;23278;52.110;6.050;2022-11-12T02:47:07;5.45;;;3.30;;
37411;SDS011;23278;52.110;6.050;2022-11-12T02:49:51;3.38;;;2.75;;
37411;SDS011;23278;52.110;6.050;2022-11-12T02:52:35;4.68;;;3.05;;
37411;SDS011;23278;52.110;6.050;2022-11-12T02:55:20;5.90;;;3.30;;
37411;SDS011;23278;52.110;6.050;2022-11-12T02:58:04;4.53;;;2.50;;
37411;SDS011;23278;52.110;6.050;2022-11-12T03:00:49;5.38;;;3.13;;
37411;SDS011;23278;52.110;6.050;2022-11-12T03:03:33;4.25;;;2.92;;
37411;SDS011;23278;52.110;6.050;2022-11-12T03:06:18;6.15;;;2.72;;
37411;SDS011;23278;52.110;6.050;2022-11-12T03:09:02;3.28;;;1.98;;
37411;SDS011;23278;52.110;6.050;2022-11-12T03:11:46;3.78;;;2.63;;
37411;SDS011;23278;52.110;6.050;2022-11-12T03:14:31;4.35;;;2.80;;
37411;SDS011;23278;52.110;6.050;2022-11-12T03:17:15;4.20;;;2.67;;
37411;SDS011;23278;52.110;6.050;2022-11-12T03:20:00;4.25;;;1.80;;
37411;SDS011;23278;52.110;6.050;2022-11-12T03:22:53;5.40;;;2.83;;
37411;SDS011;23278;52.110;6.050;2022-11-12T03:25:42;3.40;;;2.47;;
37411;SDS011;23278;52.110;6.050;2022-11-12T03:28:27;5.30;;;3.00;;
37411;SDS011;23278;52.110;6.050;2022-11-12T03:31:11;3.60;;;2.30;;
37411;SDS011;23278;52.110;6.050;2022-11-12T03:33:56;3.40;;;2.15;;
37411;SDS011;23278;52.110;6.050;2022-11-12T03:36:40;5.15;;;2.70;;
37411;SDS011;23278;52.110;6.050;2022-11-12T03:39:24;4.50;;;2.70;;
37411;SDS011;23278;52.110;6.050;2022-11-12T03:42:08;4.60;;;2.70;;
37411;SDS011;23278;52.110;6.050;2022-11-12T03:44:53;4.25;;;2.60;;
37411;SDS011;23278;52.110;6.050;2022-11-12T03:47:56;6.03;;;3.65;;
37411;SDS011;23278;52.110;6.050;2022-11-12T03:50:41;4.57;;;3.05;;
37411;SDS011;23278;52.110;6.050;2022-11-12T03:53:25;4.82;;;2.45;;
37411;SDS011;23278;52.110;6.050;2022-11-12T03:56:10;3.50;;;2.80;;
37411;SDS011;23278;52.110;6.050;2022-11-12T03:58:54;5.07;;;2.90;;
37411;SDS011;23278;52.110;6.050;2022-11-12T04:01:38;4.07;;;2.80;;
37411;SDS011;23278;52.110;6.050;2022-11-12T04:04:22;3.58;;;2.30;;
37411;SDS011;23278;52.110;6.050;2022-11-12T04:07:27;6.22;;;2.78;;
37411;SDS011;23278;52.110;6.050;2022-11-12T04:10:30;3.33;;;2.33;;
37411;SDS011;23278;52.110;6.050;2022-11-12T04:13:15;3.38;;;2.83;;
37411;SDS011;23278;52.110;6.050;2022-11-12T04:16:13;3.65;;;2.50;;
37411;SDS011;23278;52.110;6.050;2022-11-12T04:19:19;3.38;;;2.75;;
37411;SDS011;23278;52.110;6.050;2022-11-12T04:22:22;3.80;;;2.50;;
37411;SDS011;23278;52.110;6.050;2022-11-12T04:25:06;4.10;;;2.45;;
37411;SDS011;23278;52.110;6.050;2022-11-12T04:28:10;2.33;;;1.50;;
37411;SDS011;23278;52.110;6.050;2022-11-12T04:30:54;6.13;;;4.10;;
37411;SDS011;23278;52.110;6.050;2022-11-12T04:33:38;5.57;;;2.78;;
37411;SDS011;23278;52.110;6.050;2022-11-12T04:36:23;4.60;;;3.17;;
37411;SDS011;23278;52.110;6.050;2022-11-12T04:39:07;6.68;;;3.28;;
37411;SDS011;23278;52.110;6.050;2022-11-12T04:41:51;3.75;;;3.08;;
37411;SDS011;23278;52.110;6.050;2022-11-12T04:44:55;4.88;;;3.15;;
37411;SDS011;23278;52.110;6.050;2022-11-12T04:50:32;4.00;;;2.88;;
37411;SDS011;23278;52.110;6.050;2022-11-12T04:53:17;3.83;;;2.60;;
37411;SDS011;23278;52.110;6.050;2022-11-12T04:56:01;4.72;;;2.78;;
37411;SDS011;23278;52.110;6.050;2022-11-12T04:58:46;6.07;;;2.67;;
37411;SDS011;23278;52.110;6.050;2022-11-12T05:01:30;3.92;;;2.53;;
37411;SDS011;23278;52.110;6.050;2022-11-12T05:04:14;3.70;;;2.65;;
37411;SDS011;23278;52.110;6.050;2022-11-12T05:06:59;4.15;;;2.45;;
37411;SDS011;23278;52.110;6.050;2022-11-12T05:09:44;8.52;;;2.88;;
37411;SDS011;23278;52.110;6.050;2022-11-12T05:12:28;4.72;;;2.80;;
37411;SDS011;23278;52.110;6.050;2022-11-12T05:15:13;4.63;;;3.03;;
37411;SDS011;23278;52.110;6.050;2022-11-12T05:17:58;3.75;;;2.65;;
37411;SDS011;23278;52.110;6.050;2022-11-12T05:20:42;5.28;;;3.13;;
37411;SDS011;23278;52.110;6.050;2022-11-12T05:23:27;3.25;;;2.50;;
37411;SDS011;23278;52.110;6.050;2022-11-12T05:26:11;5.47;;;2.65;;
37411;SDS011;23278;52.110;6.050;2022-11-12T05:28:55;4.18;;;2.65;;
37411;SDS011;23278;52.110;6.050;2022-11-12T05:31:40;5.90;;;3.42;;
37411;SDS011;23278;52.110;6.050;2022-11-12T05:34:24;4.97;;;2.83;;
37411;SDS011;23278;52.110;6.050;2022-11-12T05:37:10;4.57;;;2.70;;
37411;SDS011;23278;52.110;6.050;2022-11-12T05:39:55;4.65;;;2.83;;
37411;SDS011;23278;52.110;6.050;2022-11-12T05:42:40;4.40;;;2.88;;
37411;SDS011;23278;52.110;6.050;2022-11-12T05:45:24;4.43;;;3.10;;
37411;SDS011;23278;52.110;6.050;2022-11-12T05:48:09;5.95;;;2.75;;
37411;SDS011;23278;52.110;6.050;2022-11-12T05:50:53;3.50;;;2.15;;
37411;SDS011;23278;52.110;6.050;2022-11-12T05:53:38;6.95;;;3.22;;
37411;SDS011;23278;52.110;6.050;2022-11-12T05:56:23;4.13;;;3.05;;
37411;SDS011;23278;52.110;6.050;2022-11-12T05:59:07;3.88;;;1.92;;
37411;SDS011;23278;52.110;6.050;2022-11-12T06:01:53;5.15;;;2.85;;
37411;SDS011;23278;52.110;6.050;2022-11-12T06:04:37;4.90;;;2.85;;
37411;SDS011;23278;52.110;6.050;2022-11-12T06:07:22;4.45;;;2.88;;
37411;SDS011;23278;52.110;6.050;2022-11-12T06:10:06;4.65;;;3.60;;
37411;SDS011;23278;52.110;6.050;2022-11-12T06:12:51;7.28;;;2.97;;
37411;SDS011;23278;52.110;6.050;2022-11-12T06:15:36;7.32;;;3.40;;
37411;SDS011;23278;52.110;6.050;2022-11-12T06:18:21;5.03;;;3.70;;
37411;SDS011;23278;52.110;6.050;2022-11-12T06:21:07;5.70;;;3.22;;
37411;SDS011;23278;52.110;6.050;2022-11-12T06:24:02;5.57;;;3.40;;
37411;SDS011;23278;52.110;6.050;2022-11-12T06:26:47;5.45;;;2.70;;
37411;SDS011;23278;52.110;6.050;2022-11-12T06:29:32;4.90;;;2.95;;
37411;SDS011;23278;52.110;6.050;2022-11-12T06:32:16;4.53;;;3.22;;
37411;SDS011;23278;52.110;6.050;2022-11-12T06:35:01;3.97;;;3.22;;
37411;SDS011;23278;52.110;6.050;2022-11-12T06:37:46;4.05;;;2.92;;
37411;SDS011;23278;52.110;6.050;2022-11-12T06:40:31;3.85;;;3.10;;
37411;SDS011;23278;52.110;6.050;2022-11-12T06:43:16;3.78;;;3.05;;
37411;SDS011;23278;52.110;6.050;2022-11-12T06:46:01;4.18;;;2.97;;
37411;SDS011;23278;52.110;6.050;2022-11-12T06:48:51;9.90;;;3.85;;
37411;SDS011;23278;52.110;6.050;2022-11-12T06:51:36;4.90;;;2.85;;
37411;SDS011;23278;52.110;6.050;2022-11-12T06:54:22;5.18;;;3.08;;
37411;SDS011;23278;52.110;6.050;2022-11-12T06:57:07;5.10;;;2.85;;
37411;SDS011;23278;52.110;6.050;2022-11-12T06:59:52;5.38;;;3.58;;
37411;SDS011;23278;52.110;6.050;2022-11-12T07:02:36;6.32;;;3.20;;
37411;SDS011;23278;52.110;6.050;2022-11-12T07:05:20;3.88;;;2.25;;
37411;SDS011;23278;52.110;6.050;2022-11-12T07:08:05;5.82;;;3.47;;
37411;SDS011;23278;52.110;6.050;2022-11-12T07:10:53;4.85;;;2.78;;
37411;SDS011;23278;52.110;6.050;2022-11-12T07:13:40;5.45;;;3.13;;
37411;SDS011;23278;52.110;6.050;2022-11-12T07:16:27;6.53;;;3.78;;
37411;SDS011;23278;52.110;6.050;2022-11-12T07:19:12;5.70;;;3.47;;
37411;SDS011;23278;52.110;6.050;2022-11-12T07:21:56;5.35;;;4.10;;
37411;SDS011;23278;52.110;6.050;2022-11-12T07:24:40;5.32;;;3.38;;
37411;SDS011;23278;52.110;6.050;2022-11-12T07:27:27;5.28;;;3.05;;
37411;SDS011;23278;52.110;6.050;2022-11-12T07:30:13;5.03;;;3.08;;
37411;SDS011;23278;52.110;6.050;2022-11-12T07:32:57;6.13;;;3.60;;
37411;SDS011;23278;52.110;6.050;2022-11-12T07:35:42;4.35;;;3.22;;
37411;SDS011;23278;52.110;6.050;2022-11-12T07:38:26;4.82;;;3.35;;
37411;SDS011;23278;52.110;6.050;2022-11-12T07:41:13;4.47;;;3.35;;
37411;SDS011;23278;52.110;6.050;2022-11-12T07:43:59;4.72;;;2.15;;
37411;SDS011;23278;52.110;6.050;2022-11-12T07:46:44;4.13;;;2.78;;
37411;SDS011;23278;52.110;6.050;2022-11-12T07:49:28;6.45;;;3.67;;
37411;SDS011;23278;52.110;6.050;2022-11-12T07:52:13;5.57;;;3.28;;
37411;SDS011;23278;52.110;6.050;2022-11-12T07:54:57;5.07;;;4.07;;
37411;SDS011;23278;52.110;6.050;2022-11-12T07:57:42;8.27;;;5.18;;
37411;SDS011;23278;52.110;6.050;2022-11-12T08:00:26;6.40;;;3.97;;
37411;SDS011;23278;52.110;6.050;2022-11-12T08:03:11;4.72;;;3.45;;
37411;SDS011;23278;52.110;6.050;2022-11-12T08:05:55;4.72;;;3.25;;
37411;SDS011;23278;52.110;6.050;2022-11-12T08:08:43;5.15;;;4.15;;
37411;SDS011;23278;52.110;6.050;2022-11-12T08:11:27;6.35;;;5.15;;
37411;SDS011;23278;52.110;6.050;2022-11-12T08:14:12;8.38;;;5.40;;
37411;SDS011;23278;52.110;6.050;2022-11-12T08:16:56;5.75;;;4.13;;
37411;SDS011;23278;52.110;6.050;2022-11-12T08:19:40;7.00;;;5.43;;
37411;SDS011;23278;52.110;6.050;2022-11-12T08:22:25;5.65;;;4.50;;
37411;SDS011;23278;52.110;6.050;2022-11-12T08:25:09;6.47;;;4.57;;
37411;SDS011;23278;52.110;6.050;2022-11-12T08:27:54;5.43;;;4.05;;
37411;SDS011;23278;52.110;6.050;2022-11-12T08:30:42;5.20;;;3.65;;
37411;SDS011;23278;52.110;6.050;2022-11-12T08:33:26;5.32;;;4.57;;
37411;SDS011;23278;52.110;6.050;2022-11-12T08:36:12;4.32;;;3.85;;
37411;SDS011;23278;52.110;6.050;2022-11-12T08:38:59;4.95;;;3.75;;
37411;SDS011;23278;52.110;6.050;2022-11-12T08:41:43;4.40;;;3.50;;
37411;SDS011;23278;52.110;6.050;2022-11-12T08:44:28;4.00;;;3.58;;
37411;SDS011;23278;52.110;6.050;2022-11-12T08:47:12;5.45;;;3.58;;
37411;SDS011;23278;52.110;6.050;2022-11-12T08:49:56;5.97;;;3.78;;
37411;SDS011;23278;52.110;6.050;2022-11-12T08:52:41;5.28;;;3.45;;
37411;SDS011;23278;52.110;6.050;2022-11-12T08:55:25;4.95;;;3.25;;
37411;SDS011;23278;52.110;6.050;2022-11-12T08:58:10;4.97;;;4.20;;
37411;SDS011;23278;52.110;6.050;2022-11-12T09:00:54;4.38;;;3.97;;
37411;SDS011;23278;52.110;6.050;2022-11-12T09:03:40;4.28;;;3.83;;
37411;SDS011;23278;52.110;6.050;2022-11-12T09:06:24;5.00;;;3.70;;
37411;SDS011;23278;52.110;6.050;2022-11-12T09:09:09;4.72;;;4.25;;
37411;SDS011;23278;52.110;6.050;2022-11-12T09:11:53;4.68;;;3.72;;
37411;SDS011;23278;52.110;6.050;2022-11-12T09:14:38;4.80;;;3.67;;
37411;SDS011;23278;52.110;6.050;2022-11-12T09:17:23;5.80;;;3.58;;
37411;SDS011;23278;52.110;6.050;2022-11-12T09:20:07;6.20;;;3.05;;
37411;SDS011;23278;52.110;6.050;2022-11-12T09:22:52;4.72;;;2.30;;
37411;SDS011;23278;52.110;6.050;2022-11-12T09:25:41;4.80;;;3.63;;
37411;SDS011;23278;52.110;6.050;2022-11-12T09:28:26;3.78;;;2.70;;
37411;SDS011;23278;52.110;6.050;2022-11-12T09:31:10;3.55;;;2.30;;
37411;SDS011;23278;52.110;6.050;2022-11-12T09:33:54;4.25;;;2.33;;
37411;SDS011;23278;52.110;6.050;2022-11-12T09:36:39;3.85;;;2.63;;
37411;SDS011;23278;52.110;6.050;2022-11-12T09:39:23;4.35;;;3.45;;
37411;SDS011;23278;52.110;6.050;2022-11-12T09:42:08;6.35;;;2.92;;
37411;SDS011;23278;52.110;6.050;2022-11-12T09:44:59;6.57;;;2.65;;
37411;SDS011;23278;52.110;6.050;2022-11-12T09:47:53;3.47;;;2.28;;
37411;SDS011;23278;52.110;6.050;2022-11-12T09:50:50;7.85;;;3.38;;
37411;SDS011;23278;52.110;6.050;2022-11-12T09:53:39;7.13;;;3.30;;
37411;SDS011;23278;52.110;6.050;2022-11-12T09:56:30;3.03;;;2.15;;
37411;SDS011;23278;52.110;6.050;2022-11-12T09:59:15;3.63;;;2.50;;
37411;SDS011;23278;52.110;6.050;2022-11-12T10:10:48;2.85;;;1.90;;
37411;SDS011;23278;52.110;6.050;2022-11-12T10:14:13;3.35;;;1.85;;
37411;SDS011;23278;52.110;6.050;2022-11-12T10:17:26;3.00;;;1.90;;
37411;SDS011;23278;52.110;6.050;2022-11-12T10:20:25;2.83;;;1.80;;
37411;SDS011;23278;52.110;6.050;2022-11-12T10:23:35;4.10;;;2.10;;
37411;SDS011;23278;52.110;6.050;2022-11-12T10:26:26;2.95;;;1.52;;
37411;SDS011;23278;52.110;6.050;2022-11-12T10:29:24;1.98;;;1.70;;
37411;SDS011;23278;52.110;6.050;2022-11-12T10:32:19;3.72;;;1.98;;
37411;SDS011;23278;52.110;6.050;2022-11-12T10:35:04;2.75;;;1.50;;
37411;SDS011;23278;52.110;6.050;2022-11-12T10:37:59;1.90;;;1.08;;
37411;SDS011;23278;52.110;6.050;2022-11-12T10:40:49;1.95;;;1.42;;
37411;SDS011;23278;52.110;6.050;2022-11-12T10:43:34;1.98;;;1.30;;
37411;SDS011;23278;52.110;6.050;2022-11-12T10:46:19;3.00;;;1.60;;
37411;SDS011;23278;52.110;6.050;2022-11-12T10:51:59;2.13;;;1.35;;
37411;SDS011;23278;52.110;6.050;2022-11-12T10:54:43;4.00;;;1.90;;
37411;SDS011;23278;52.110;6.050;2022-11-12T10:57:27;6.55;;;2.53;;
37411;SDS011;23278;52.110;6.050;2022-11-12T11:02:57;3.00;;;1.40;;
37411;SDS011;23278;52.110;6.050;2022-11-12T11:08:38;2.38;;;1.30;;
37411;SDS011;23278;52.110;6.050;2022-11-12T11:11:28;2.05;;;1.30;;
37411;SDS011;23278;52.110;6.050;2022-11-12T11:14:32;2.58;;;1.30;;
37411;SDS011;23278;52.110;6.050;2022-11-12T11:17:17;4.30;;;1.10;;
37411;SDS011;23278;52.110;6.050;2022-11-12T11:20:13;2.75;;;1.10;;
37411;SDS011;23278;52.110;6.050;2022-11-12T11:23:01;2.20;;;1.42;;
37411;SDS011;23278;52.110;6.050;2022-11-12T11:25:50;2.38;;;1.17;;
37411;SDS011;23278;52.110;6.050;2022-11-12T11:28:48;1.45;;;1.00;;
37411;SDS011;23278;52.110;6.050;2022-11-12T11:37:45;1.88;;;1.33;;
37411;SDS011;23278;52.110;6.050;2022-11-12T11:44:06;2.33;;;1.10;;
37411;SDS011;23278;52.110;6.050;2022-11-12T11:56:01;3.20;;;1.65;;
37411;SDS011;23278;52.110;6.050;2022-11-12T12:02:06;3.05;;;2.13;;
37411;SDS011;23278;52.110;6.050;2022-11-12T12:11:52;2.25;;;1.63;;
37411;SDS011;23278;52.110;6.050;2022-11-12T12:17:42;2.55;;;1.52;;
37411;SDS011;23278;52.110;6.050;2022-11-12T12:20:43;2.03;;;1.27;;
37411;SDS011;23278;52.110;6.050;2022-11-12T12:23:49;2.05;;;1.20;;
37411;SDS011;23278;52.110;6.050;2022-11-12T12:26:55;1.60;;;1.13;;
37411;SDS011;23278;52.110;6.050;2022-11-12T12:29:48;1.90;;;1.00;;
37411;SDS011;23278;52.110;6.050;2022-11-12T12:32:40;1.77;;;1.23;;
37411;SDS011;23278;52.110;6.050;2022-11-12T12:35:33;4.05;;;1.80;;
37411;SDS011;23278;52.110;6.050;2022-11-12T12:38:39;2.30;;;1.65;;
37411;SDS011;23278;52.110;6.050;2022-11-12T12:44:46;1.25;;;1.02;;
37411;SDS011;23278;52.110;6.050;2022-11-12T12:47:47;3.58;;;1.70;;
37411;SDS011;23278;52.110;6.050;2022-11-12T12:50:32;1.70;;;1.15;;
37411;SDS011;23278;52.110;6.050;2022-11-12T12:58:57;3.78;;;1.52;;
37411;SDS011;23278;52.110;6.050;2022-11-12T13:01:51;2.15;;;1.40;;
37411;SDS011;23278;52.110;6.050;2022-11-12T13:04:51;1.55;;;1.13;;
37411;SDS011;23278;52.110;6.050;2022-11-12T13:07:46;3.38;;;1.52;;
37411;SDS011;23278;52.110;6.050;2022-11-12T13:13:23;4.43;;;1.50;;
37411;SDS011;23278;52.110;6.050;2022-11-12T13:16:10;2.45;;;1.90;;
37411;SDS011;23278;52.110;6.050;2022-11-12T13:20:14;1.95;;;1.52;;
37411;SDS011;23278;52.110;6.050;2022-11-12T13:22:51;2.17;;;1.42;;
37411;SDS011;23278;52.110;6.050;2022-11-12T13:25:35;2.97;;;1.35;;
37411;SDS011;23278;52.110;6.050;2022-11-12T13:28:20;1.65;;;1.25;;
37411;SDS011;23278;52.110;6.050;2022-11-12T13:31:19;3.05;;;1.40;;
37411;SDS011;23278;52.110;6.050;2022-11-12T13:34:29;2.92;;;1.55;;
37411;SDS011;23278;52.110;6.050;2022-11-12T13:37:19;3.88;;;1.38;;
37411;SDS011;23278;52.110;6.050;2022-11-12T13:40:08;1.92;;;1.40;;
37411;SDS011;23278;52.110;6.050;2022-11-12T13:51:43;3.30;;;1.17;;
37411;SDS011;23278;52.110;6.050;2022-11-12T13:54:30;1.90;;;1.17;;
37411;SDS011;23278;52.110;6.050;2022-11-12T14:00:08;3.60;;;1.63;;
37411;SDS011;23278;52.110;6.050;2022-11-12T14:03:05;4.70;;;1.38;;
37411;SDS011;23278;52.110;6.050;2022-11-12T14:05:51;2.13;;;1.40;;
37411;SDS011;23278;52.110;6.050;2022-11-12T14:20:34;1.88;;;1.30;;
37411;SDS011;23278;52.110;6.050;2022-11-12T14:23:21;2.63;;;1.35;;
37411;SDS011;23278;52.110;6.050;2022-11-12T14:26:08;2.58;;;1.52;;
37411;SDS011;23278;52.110;6.050;2022-11-12T14:28:54;2.88;;;2.00;;
37411;SDS011;23278;52.110;6.050;2022-11-12T14:31:40;4.68;;;1.83;;
37411;SDS011;23278;52.110;6.050;2022-11-12T14:34:26;2.00;;;1.30;;
37411;SDS011;23278;52.110;6.050;2022-11-12T14:40:19;2.47;;;1.30;;
37411;SDS011;23278;52.110;6.050;2022-11-12T14:43:05;3.45;;;1.30;;
37411;SDS011;23278;52.110;6.050;2022-11-12T14:46:01;4.75;;;1.48;;
37411;SDS011;23278;52.110;6.050;2022-11-12T14:48:52;2.00;;;1.23;;
37411;SDS011;23278;52.110;6.050;2022-11-12T14:51:46;2.50;;;1.55;;
37411;SDS011;23278;52.110;6.050;2022-11-12T14:54:40;2.13;;;1.25;;
37411;SDS011;23278;52.110;6.050;2022-11-12T14:57:29;4.10;;;1.83;;
37411;SDS011;23278;52.110;6.050;2022-11-12T15:00:15;3.50;;;1.88;;
37411;SDS011;23278;52.110;6.050;2022-11-12T15:03:04;3.65;;;1.90;;
37411;SDS011;23278;52.110;6.050;2022-11-12T15:05:56;4.07;;;2.05;;
37411;SDS011;23278;52.110;6.050;2022-11-12T15:08:56;2.87;;;2.13;;
37411;SDS011;23278;52.110;6.050;2022-11-12T15:11:42;4.05;;;2.22;;
37411;SDS011;23278;52.110;6.050;2022-11-12T15:14:29;4.30;;;3.05;;
37411;SDS011;23278;52.110;6.050;2022-11-12T15:17:21;2.92;;;2.45;;
37411;SDS011;23278;52.110;6.050;2022-11-12T15:20:16;3.63;;;2.45;;
37411;SDS011;23278;52.110;6.050;2022-11-12T15:23:02;3.53;;;2.40;;
37411;SDS011;23278;52.110;6.050;2022-11-12T15:25:55;3.90;;;2.80;;
37411;SDS011;23278;52.110;6.050;2022-11-12T15:29:10;3.50;;;2.80;;
37411;SDS011;23278;52.110;6.050;2022-11-12T15:34:46;3.58;;;1.88;;
37411;SDS011;23278;52.110;6.050;2022-11-12T15:37:31;4.43;;;2.70;;
37411;SDS011;23278;52.110;6.050;2022-11-12T15:40:23;4.15;;;2.63;;
37411;SDS011;23278;52.110;6.050;2022-11-12T15:43:11;6.45;;;1.88;;
37411;SDS011;23278;52.110;6.050;2022-11-12T15:46:01;3.42;;;1.55;;
37411;SDS011;23278;52.110;6.050;2022-11-12T15:48:46;2.70;;;1.83;;
37411;SDS011;23278;52.110;6.050;2022-11-12T15:51:31;4.53;;;2.40;;
37411;SDS011;23278;52.110;6.050;2022-11-12T15:54:15;3.20;;;2.05;;
37411;SDS011;23278;52.110;6.050;2022-11-12T15:57:00;3.88;;;2.70;;
37411;SDS011;23278;52.110;6.050;2022-11-12T15:59:44;3.08;;;2.13;;
37411;SDS011;23278;52.110;6.050;2022-11-12T16:02:33;4.20;;;2.28;;
37411;SDS011;23278;52.110;6.050;2022-11-12T16:05:18;4.95;;;1.98;;
37411;SDS011;23278;52.110;6.050;2022-11-12T16:08:02;6.07;;;3.10;;
37411;SDS011;23278;52.110;6.050;2022-11-12T16:10:47;6.88;;;3.25;;
37411;SDS011;23278;52.110;6.050;2022-11-12T16:13:32;10.38;;;2.55;;
37411;SDS011;23278;52.110;6.050;2022-11-12T16:16:17;3.47;;;2.03;;
37411;SDS011;23278;52.110;6.050;2022-11-12T16:19:01;4.90;;;2.08;;
37411;SDS011;23278;52.110;6.050;2022-11-12T16:21:46;5.88;;;3.28;;
37411;SDS011;23278;52.110;6.050;2022-11-12T16:24:30;6.75;;;3.55;;
37411;SDS011;23278;52.110;6.050;2022-11-12T16:27:14;7.43;;;3.90;;
37411;SDS011;23278;52.110;6.050;2022-11-12T16:30:00;8.65;;;4.13;;
37411;SDS011;23278;52.110;6.050;2022-11-12T16:32:46;8.45;;;4.72;;
37411;SDS011;23278;52.110;6.050;2022-11-12T16:35:32;8.13;;;5.75;;
37411;SDS011;23278;52.110;6.050;2022-11-12T16:38:18;11.25;;;6.65;;
37411;SDS011;23278;52.110;6.050;2022-11-12T16:41:02;9.93;;;6.63;;
37411;SDS011;23278;52.110;6.050;2022-11-12T16:43:47;10.80;;;5.88;;
37411;SDS011;23278;52.110;6.050;2022-11-12T16:46:35;9.32;;;5.60;;
37411;SDS011;23278;52.110;6.050;2022-11-12T16:52:09;7.43;;;4.57;;
37411;SDS011;23278;52.110;6.050;2022-11-12T16:54:53;4.85;;;3.75;;
37411;SDS011;23278;52.110;6.050;2022-11-12T16:57:38;9.48;;;5.72;;
37411;SDS011;23278;52.110;6.050;2022-11-12T17:00:26;9.98;;;5.25;;
37411;SDS011;23278;52.110;6.050;2022-11-12T17:03:11;11.77;;;7.13;;
37411;SDS011;23278;52.110;6.050;2022-11-12T17:05:56;11.52;;;6.50;;
37411;SDS011;23278;52.110;6.050;2022-11-12T17:08:41;7.35;;;5.07;;
37411;SDS011;23278;52.110;6.050;2022-11-12T17:11:27;5.10;;;3.88;;
37411;SDS011;23278;52.110;6.050;2022-11-12T17:14:11;5.10;;;3.20;;
37411;SDS011;23278;52.110;6.050;2022-11-12T17:16:56;5.38;;;2.75;;
37411;SDS011;23278;52.110;6.050;2022-11-12T17:19:41;5.20;;;2.45;;
37411;SDS011;23278;52.110;6.050;2022-11-12T17:22:25;5.75;;;2.55;;
37411;SDS011;23278;52.110;6.050;2022-11-12T17:25:10;4.45;;;3.15;;
37411;SDS011;23278;52.110;6.050;2022-11-12T17:27:55;5.18;;;2.90;;
37411;SDS011;23278;52.110;6.050;2022-11-12T17:30:39;6.50;;;2.78;;
37411;SDS011;23278;52.110;6.050;2022-11-12T17:33:23;9.05;;;2.92;;
37411;SDS011;23278;52.110;6.050;2022-11-12T17:36:08;5.22;;;3.17;;
37411;SDS011;23278;52.110;6.050;2022-11-12T17:38:55;6.18;;;3.05;;
37411;SDS011;23278;52.110;6.050;2022-11-12T17:41:41;4.95;;;3.05;;
37411;SDS011;23278;52.110;6.050;2022-11-12T17:44:25;4.18;;;2.55;;
37411;SDS011;23278;52.110;6.050;2022-11-12T17:47:10;10.27;;;2.67;;
37411;SDS011;23278;52.110;6.050;2022-11-12T17:49:54;9.73;;;2.42;;
37411;SDS011;23278;52.110;6.050;2022-11-12T17:52:38;3.78;;;2.47;;
37411;SDS011;23278;52.110;6.050;2022-11-12T17:55:23;4.13;;;2.33;;
37411;SDS011;23278;52.110;6.050;2022-11-12T17:58:07;3.88;;;2.38;;
37411;SDS011;23278;52.110;6.050;2022-11-12T18:00:52;5.85;;;2.47;;
37411;SDS011;23278;52.110;6.050;2022-11-12T18:03:37;4.05;;;2.22;;
37411;SDS011;23278;52.110;6.050;2022-11-12T18:06:25;4.47;;;2.70;;
37411;SDS011;23278;52.110;6.050;2022-11-12T18:09:15;6.63;;;4.38;;
37411;SDS011;23278;52.110;6.050;2022-11-12T18:11:59;4.25;;;2.67;;
37411;SDS011;23278;52.110;6.050;2022-11-12T18:14:44;2.67;;;2.10;;
37411;SDS011;23278;52.110;6.050;2022-11-12T18:17:29;3.53;;;2.25;;
37411;SDS011;23278;52.110;6.050;2022-11-12T18:20:16;4.10;;;2.03;;
37411;SDS011;23278;52.110;6.050;2022-11-12T18:23:02;10.68;;;2.63;;
37411;SDS011;23278;52.110;6.050;2022-11-12T18:25:51;4.50;;;2.30;;